sensor_id;sensor_type;location;lat;lon;timestamp;temperature;humidity
25046;DHT22;13044;49.304;12.840;2023-02-01T00:00:56;3.30;99.90
25046;DHT22;13044;49.304;12.840;2023-02-01T00:03:23;3.40;99.90
25046;DHT22;13044;49.304;12.840;2023-02-01T00:05:57;3.30;99.90
25046;DHT22;13044;49.304;12.840;2023-02-01T00:08:25;3.30;99.90
25046;DHT22;13044;49.304;12.840;2023-02-01T00:11:04;3.30;99.90
25046;DHT22;13044;49.304;12.840;2023-02-01T00:13:34;3.20;99.90
25046;DHT22;13044;49.304;12.840;2023-02-01T00:16:08;3.30;99.90
25046;DHT22;13044;49.304;12.840;2023-02-01T00:18:36;3.30;99.90
25046;DHT22;13044;49.304;12.840;2023-02-01T00:21:03;3.20;99.90
25046;DHT22;13044;49.304;12.840;2023-02-01T00:23:35;3.20;99.90
25046;DHT22;13044;49.304;12.840;2023-02-01T00:26:06;3.20;99.90
25046;DHT22;13044;49.304;12.840;2023-02-01T00:28:36;3.20;99.90
25046;DHT22;13044;49.304;12.840;2023-02-01T00:31:05;3.30;99.90
25046;DHT22;13044;49.304;12.840;2023-02-01T00:33:32;3.30;99.90
25046;DHT22;13044;49.304;12.840;2023-02-01T00:36:01;3.20;99.90
25046;DHT22;13044;49.304;12.840;2023-02-01T00:38:30;3.20;99.90
25046;DHT22;13044;49.304;12.840;2023-02-01T00:41:05;3.20;99.90
25046;DHT22;13044;49.304;12.840;2023-02-01T00:43:34;3.30;99.90
25046;DHT22;13044;49.304;12.840;2023-02-01T00:46:01;3.20;99.90
25046;DHT22;13044;49.304;12.840;2023-02-01T00:48:28;3.30;99.90
25046;DHT22;13044;49.304;12.840;2023-02-01T00:51:04;3.20;99.90
25046;DHT22;13044;49.304;12.840;2023-02-01T00:53:39;3.20;99.90
25046;DHT22;13044;49.304;12.840;2023-02-01T00:56:06;3.20;99.90
25046;DHT22;13044;49.304;12.840;2023-02-01T00:58:34;3.20;99.90
25046;DHT22;13044;49.304;12.840;2023-02-01T01:01:13;3.20;99.90
25046;DHT22;13044;49.304;12.840;2023-02-01T01:03:49;3.20;99.90
25046;DHT22;13044;49.304;12.840;2023-02-01T01:06:20;3.30;99.90
25046;DHT22;13044;49.304;12.840;2023-02-01T01:08:51;3.30;99.90
25046;DHT22;13044;49.304;12.840;2023-02-01T01:11:22;3.20;99.90
25046;DHT22;13044;49.304;12.840;2023-02-01T01:13:52;3.30;99.90
25046;DHT22;13044;49.304;12.840;2023-02-01T01:16:21;3.30;99.90
25046;DHT22;13044;49.304;12.840;2023-02-01T01:18:50;3.30;99.90
25046;DHT22;13044;49.304;12.840;2023-02-01T01:21:18;3.30;99.90
25046;DHT22;13044;49.304;12.840;2023-02-01T01:23:46;3.30;99.90
25046;DHT22;13044;49.304;12.840;2023-02-01T01:26:16;3.30;99.90
25046;DHT22;13044;49.304;12.840;2023-02-01T01:28:44;3.30;99.90
25046;DHT22;13044;49.304;12.840;2023-02-01T01:31:13;3.30;99.90
25046;DHT22;13044;49.304;12.840;2023-02-01T01:33:41;3.30;99.90
25046;DHT22;13044;49.304;12.840;2023-02-01T01:36:11;3.30;99.90
25046;DHT22;13044;49.304;12.840;2023-02-01T01:38:42;3.30;99.90
25046;DHT22;13044;49.304;12.840;2023-02-01T01:41:13;3.40;99.90
25046;DHT22;13044;49.304;12.840;2023-02-01T01:43:49;3.40;99.90
25046;DHT22;13044;49.304;12.840;2023-02-01T01:46:24;3.30;99.90
25046;DHT22;13044;49.304;12.840;2023-02-01T01:51:48;3.30;99.90
25046;DHT22;13044;49.304;12.840;2023-02-01T01:54:36;3.30;99.90
25046;DHT22;13044;49.304;12.840;2023-02-01T01:57:26;3.30;99.90
25046;DHT22;13044;49.304;12.840;2023-02-01T02:00:16;3.30;99.90
25046;DHT22;13044;49.304;12.840;2023-02-01T02:02:47;3.30;99.90
25046;DHT22;13044;49.304;12.840;2023-02-01T02:05:20;3.30;99.90
25046;DHT22;13044;49.304;12.840;2023-02-01T02:07:49;3.30;99.90
25046;DHT22;13044;49.304;12.840;2023-02-01T02:10:17;3.30;99.90
25046;DHT22;13044;49.304;12.840;2023-02-01T02:12:47;3.30;99.90
25046;DHT22;13044;49.304;12.840;2023-02-01T02:15:16;3.30;99.90
25046;DHT22;13044;49.304;12.840;2023-02-01T02:18:02;3.20;99.90
25046;DHT22;13044;49.304;12.840;2023-02-01T02:20:50;3.20;99.90
25046;DHT22;13044;49.304;12.840;2023-02-01T02:38:49;3.10;99.90
25046;DHT22;13044;49.304;12.840;2023-02-01T02:42:22;3.20;99.90
25046;DHT22;13044;49.304;12.840;2023-02-01T02:45:08;3.20;99.90
25046;DHT22;13044;49.304;12.840;2023-02-01T02:48:27;3.20;99.90
25046;DHT22;13044;49.304;12.840;2023-02-01T02:51:17;3.20;99.90
25046;DHT22;13044;49.304;12.840;2023-02-01T02:54:26;3.20;99.90
25046;DHT22;13044;49.304;12.840;2023-02-01T02:57:31;3.30;99.90
25046;DHT22;13044;49.304;12.840;2023-02-01T03:00:27;3.40;99.90
25046;DHT22;13044;49.304;12.840;2023-02-01T03:03:14;3.40;99.90
25046;DHT22;13044;49.304;12.840;2023-02-01T03:05:59;3.40;99.90
25046;DHT22;13044;49.304;12.840;2023-02-01T03:08:29;3.50;99.90
25046;DHT22;13044;49.304;12.840;2023-02-01T03:11:07;3.50;99.90
25046;DHT22;13044;49.304;12.840;2023-02-01T03:13:44;3.50;99.90
25046;DHT22;13044;49.304;12.840;2023-02-01T03:16:32;3.50;99.90
25046;DHT22;13044;49.304;12.840;2023-02-01T03:19:21;3.50;99.90
25046;DHT22;13044;49.304;12.840;2023-02-01T03:22:12;3.50;99.90
25046;DHT22;13044;49.304;12.840;2023-02-01T03:24:44;3.40;99.90
25046;DHT22;13044;49.304;12.840;2023-02-01T03:27:33;3.30;99.90
25046;DHT22;13044;49.304;12.840;2023-02-01T03:30:17;3.30;99.90
25046;DHT22;13044;49.304;12.840;2023-02-01T03:32:50;3.30;99.90
25046;DHT22;13044;49.304;12.840;2023-02-01T03:35:38;3.40;99.90
25046;DHT22;13044;49.304;12.840;2023-02-01T03:38:29;3.40;99.90
25046;DHT22;13044;49.304;12.840;2023-02-01T03:41:45;3.40;99.90
25046;DHT22;13044;49.304;12.840;2023-02-01T03:44:26;3.50;99.90
25046;DHT22;13044;49.304;12.840;2023-02-01T03:47:22;3.50;99.90
25046;DHT22;13044;49.304;12.840;2023-02-01T03:52:47;3.50;99.90
25046;DHT22;13044;49.304;12.840;2023-02-01T03:55:17;3.50;99.90
25046;DHT22;13044;49.304;12.840;2023-02-01T03:57:53;3.60;99.90
25046;DHT22;13044;49.304;12.840;2023-02-01T04:00:25;3.60;99.90
25046;DHT22;13044;49.304;12.840;2023-02-01T04:02:52;3.60;99.90
25046;DHT22;13044;49.304;12.840;2023-02-01T04:05:20;3.60;99.90
25046;DHT22;13044;49.304;12.840;2023-02-01T04:07:47;3.70;99.90
25046;DHT22;13044;49.304;12.840;2023-02-01T04:10:15;3.60;99.90
25046;DHT22;13044;49.304;12.840;2023-02-01T04:12:45;3.80;99.90
25046;DHT22;13044;49.304;12.840;2023-02-01T04:15:12;3.80;99.90
25046;DHT22;13044;49.304;12.840;2023-02-01T04:17:38;3.70;99.90
25046;DHT22;13044;49.304;12.840;2023-02-01T04:20:06;3.60;99.90
25046;DHT22;13044;49.304;12.840;2023-02-01T04:22:33;3.60;99.90
25046;DHT22;13044;49.304;12.840;2023-02-01T04:25:00;3.60;99.90
25046;DHT22;13044;49.304;12.840;2023-02-01T04:27:27;3.50;99.90
25046;DHT22;13044;49.304;12.840;2023-02-01T04:29:54;3.50;99.90
25046;DHT22;13044;49.304;12.840;2023-02-01T04:32:24;3.60;99.90
25046;DHT22;13044;49.304;12.840;2023-02-01T04:34:51;3.50;99.90
25046;DHT22;13044;49.304;12.840;2023-02-01T04:37:18;3.60;99.90
25046;DHT22;13044;49.304;12.840;2023-02-01T04:39:44;3.60;99.90
25046;DHT22;13044;49.304;12.840;2023-02-01T04:42:11;3.60;99.90
25046;DHT22;13044;49.304;12.840;2023-02-01T04:44:38;3.60;99.90
25046;DHT22;13044;49.304;12.840;2023-02-01T04:47:08;3.60;99.90
25046;DHT22;13044;49.304;12.840;2023-02-01T04:49:36;3.60;99.90
25046;DHT22;13044;49.304;12.840;2023-02-01T04:52:03;3.60;99.90
25046;DHT22;13044;49.304;12.840;2023-02-01T04:54:30;3.60;99.90
25046;DHT22;13044;49.304;12.840;2023-02-01T04:56:57;3.60;99.90
25046;DHT22;13044;49.304;12.840;2023-02-01T04:59:23;3.70;99.90
25046;DHT22;13044;49.304;12.840;2023-02-01T05:01:50;3.60;99.90
25046;DHT22;13044;49.304;12.840;2023-02-01T05:04:17;3.50;99.90
25046;DHT22;13044;49.304;12.840;2023-02-01T05:06:45;3.50;99.90
25046;DHT22;13044;49.304;12.840;2023-02-01T05:09:12;3.40;99.90
25046;DHT22;13044;49.304;12.840;2023-02-01T05:11:39;3.40;99.90
25046;DHT22;13044;49.304;12.840;2023-02-01T05:14:25;3.40;99.90
25046;DHT22;13044;49.304;12.840;2023-02-01T05:16:51;3.30;99.90
25046;DHT22;13044;49.304;12.840;2023-02-01T05:19:19;3.30;99.90
25046;DHT22;13044;49.304;12.840;2023-02-01T05:21:45;3.30;99.90
25046;DHT22;13044;49.304;12.840;2023-02-01T05:24:12;3.30;99.90
25046;DHT22;13044;49.304;12.840;2023-02-01T05:26:41;3.30;99.90
25046;DHT22;13044;49.304;12.840;2023-02-01T05:29:09;3.40;99.90
25046;DHT22;13044;49.304;12.840;2023-02-01T05:31:36;3.40;99.90
25046;DHT22;13044;49.304;12.840;2023-02-01T05:34:03;3.30;99.90
25046;DHT22;13044;49.304;12.840;2023-02-01T05:36:31;3.30;99.90
25046;DHT22;13044;49.304;12.840;2023-02-01T05:38:58;3.30;99.90
25046;DHT22;13044;49.304;12.840;2023-02-01T05:41:25;3.30;99.90
25046;DHT22;13044;49.304;12.840;2023-02-01T05:43:52;3.30;99.90
25046;DHT22;13044;49.304;12.840;2023-02-01T05:46:19;3.30;99.90
25046;DHT22;13044;49.304;12.840;2023-02-01T05:48:46;3.30;99.90
25046;DHT22;13044;49.304;12.840;2023-02-01T05:51:13;3.30;99.90
25046;DHT22;13044;49.304;12.840;2023-02-01T05:53:40;3.30;99.90
25046;DHT22;13044;49.304;12.840;2023-02-01T05:56:07;3.30;99.90
25046;DHT22;13044;49.304;12.840;2023-02-01T05:58:34;3.30;99.90
25046;DHT22;13044;49.304;12.840;2023-02-01T06:01:02;3.20;99.90
25046;DHT22;13044;49.304;12.840;2023-02-01T06:03:30;3.30;99.90
25046;DHT22;13044;49.304;12.840;2023-02-01T06:05:57;3.30;99.90
25046;DHT22;13044;49.304;12.840;2023-02-01T06:08:24;3.20;99.90
25046;DHT22;13044;49.304;12.840;2023-02-01T06:11:01;3.10;99.90
25046;DHT22;13044;49.304;12.840;2023-02-01T06:13:29;3.10;99.90
25046;DHT22;13044;49.304;12.840;2023-02-01T06:15:58;3.10;99.90
25046;DHT22;13044;49.304;12.840;2023-02-01T06:18:25;3.00;99.90
25046;DHT22;13044;49.304;12.840;2023-02-01T06:20:54;3.10;99.90
25046;DHT22;13044;49.304;12.840;2023-02-01T06:23:21;3.10;99.90
25046;DHT22;13044;49.304;12.840;2023-02-01T06:25:51;3.10;99.90
25046;DHT22;13044;49.304;12.840;2023-02-01T06:28:19;3.10;99.90
25046;DHT22;13044;49.304;12.840;2023-02-01T06:30:46;3.10;99.90
25046;DHT22;13044;49.304;12.840;2023-02-01T06:33:13;3.10;99.90
25046;DHT22;13044;49.304;12.840;2023-02-01T06:35:42;3.10;99.90
25046;DHT22;13044;49.304;12.840;2023-02-01T06:38:11;3.10;99.90
25046;DHT22;13044;49.304;12.840;2023-02-01T06:40:39;3.10;99.90
25046;DHT22;13044;49.304;12.840;2023-02-01T06:43:07;3.10;99.90
25046;DHT22;13044;49.304;12.840;2023-02-01T06:45:34;3.20;99.90
25046;DHT22;13044;49.304;12.840;2023-02-01T06:48:01;3.20;99.90
25046;DHT22;13044;49.304;12.840;2023-02-01T06:50:28;3.20;99.90
25046;DHT22;13044;49.304;12.840;2023-02-01T06:52:55;3.20;99.90
25046;DHT22;13044;49.304;12.840;2023-02-01T06:55:22;3.10;99.90
25046;DHT22;13044;49.304;12.840;2023-02-01T06:57:53;3.10;99.90
25046;DHT22;13044;49.304;12.840;2023-02-01T07:00:22;3.10;99.90
25046;DHT22;13044;49.304;12.840;2023-02-01T07:02:50;3.20;99.90
25046;DHT22;13044;49.304;12.840;2023-02-01T07:05:17;3.20;99.90
25046;DHT22;13044;49.304;12.840;2023-02-01T07:07:44;3.20;99.90
25046;DHT22;13044;49.304;12.840;2023-02-01T07:10:11;3.20;99.90
25046;DHT22;13044;49.304;12.840;2023-02-01T07:12:38;3.20;99.90
25046;DHT22;13044;49.304;12.840;2023-02-01T07:15:06;3.30;99.90
25046;DHT22;13044;49.304;12.840;2023-02-01T07:17:33;3.20;99.90
25046;DHT22;13044;49.304;12.840;2023-02-01T07:20:00;3.20;99.90
25046;DHT22;13044;49.304;12.840;2023-02-01T07:22:28;3.30;99.90
25046;DHT22;13044;49.304;12.840;2023-02-01T07:24:55;3.30;99.90
25046;DHT22;13044;49.304;12.840;2023-02-01T07:27:22;3.30;99.90
25046;DHT22;13044;49.304;12.840;2023-02-01T07:29:51;3.30;99.90
25046;DHT22;13044;49.304;12.840;2023-02-01T07:32:18;3.30;99.90
25046;DHT22;13044;49.304;12.840;2023-02-01T07:34:45;3.30;99.90
25046;DHT22;13044;49.304;12.840;2023-02-01T07:37:12;3.30;99.90
25046;DHT22;13044;49.304;12.840;2023-02-01T07:39:39;3.40;99.90
25046;DHT22;13044;49.304;12.840;2023-02-01T07:42:06;3.40;99.90
25046;DHT22;13044;49.304;12.840;2023-02-01T07:44:33;3.40;99.90
25046;DHT22;13044;49.304;12.840;2023-02-01T07:47:01;3.40;99.90
25046;DHT22;13044;49.304;12.840;2023-02-01T07:49:27;3.40;99.90
25046;DHT22;13044;49.304;12.840;2023-02-01T07:51:54;3.40;99.90
25046;DHT22;13044;49.304;12.840;2023-02-01T07:54:21;3.40;99.90
25046;DHT22;13044;49.304;12.840;2023-02-01T07:56:48;3.50;99.90
25046;DHT22;13044;49.304;12.840;2023-02-01T07:59:15;3.50;99.90
25046;DHT22;13044;49.304;12.840;2023-02-01T08:01:42;3.50;99.90
25046;DHT22;13044;49.304;12.840;2023-02-01T08:04:13;3.60;99.90
25046;DHT22;13044;49.304;12.840;2023-02-01T08:06:41;3.60;99.90
25046;DHT22;13044;49.304;12.840;2023-02-01T08:09:08;3.50;99.90
25046;DHT22;13044;49.304;12.840;2023-02-01T08:11:37;3.50;99.90
25046;DHT22;13044;49.304;12.840;2023-02-01T08:14:04;3.60;99.90
25046;DHT22;13044;49.304;12.840;2023-02-01T08:16:32;3.60;99.90
25046;DHT22;13044;49.304;12.840;2023-02-01T08:19:02;3.60;99.90
25046;DHT22;13044;49.304;12.840;2023-02-01T08:21:29;3.60;99.90
25046;DHT22;13044;49.304;12.840;2023-02-01T08:24:07;3.60;99.90
25046;DHT22;13044;49.304;12.840;2023-02-01T08:26:35;3.60;99.90
25046;DHT22;13044;49.304;12.840;2023-02-01T08:29:04;3.50;99.90
25046;DHT22;13044;49.304;12.840;2023-02-01T08:31:31;3.50;99.90
25046;DHT22;13044;49.304;12.840;2023-02-01T08:34:01;3.60;99.90
25046;DHT22;13044;49.304;12.840;2023-02-01T08:36:31;3.60;99.90
25046;DHT22;13044;49.304;12.840;2023-02-01T08:38:58;3.60;99.90
25046;DHT22;13044;49.304;12.840;2023-02-01T08:41:28;3.60;99.90
25046;DHT22;13044;49.304;12.840;2023-02-01T08:43:56;3.60;99.90
25046;DHT22;13044;49.304;12.840;2023-02-01T08:46:23;3.60;99.90
25046;DHT22;13044;49.304;12.840;2023-02-01T08:48:51;3.50;99.90
25046;DHT22;13044;49.304;12.840;2023-02-01T08:51:19;3.50;99.90
25046;DHT22;13044;49.304;12.840;2023-02-01T08:53:47;3.50;99.90
25046;DHT22;13044;49.304;12.840;2023-02-01T08:56:16;3.50;99.90
25046;DHT22;13044;49.304;12.840;2023-02-01T08:58:44;3.50;99.90
25046;DHT22;13044;49.304;12.840;2023-02-01T09:01:14;3.40;99.90
25046;DHT22;13044;49.304;12.840;2023-02-01T09:03:42;3.40;99.90
25046;DHT22;13044;49.304;12.840;2023-02-01T09:06:12;3.40;99.90
25046;DHT22;13044;49.304;12.840;2023-02-01T09:08:41;3.40;99.90
25046;DHT22;13044;49.304;12.840;2023-02-01T09:11:12;3.40;99.90
25046;DHT22;13044;49.304;12.840;2023-02-01T09:13:41;3.40;99.90
25046;DHT22;13044;49.304;12.840;2023-02-01T09:16:08;3.50;99.90
25046;DHT22;13044;49.304;12.840;2023-02-01T09:18:35;3.50;99.90
25046;DHT22;13044;49.304;12.840;2023-02-01T09:21:16;3.60;99.90
25046;DHT22;13044;49.304;12.840;2023-02-01T09:23:43;3.70;99.90
25046;DHT22;13044;49.304;12.840;2023-02-01T09:26:10;3.70;99.90
25046;DHT22;13044;49.304;12.840;2023-02-01T09:28:40;3.80;99.90
25046;DHT22;13044;49.304;12.840;2023-02-01T09:31:07;3.80;99.90
25046;DHT22;13044;49.304;12.840;2023-02-01T09:33:35;3.80;99.90
25046;DHT22;13044;49.304;12.840;2023-02-01T09:36:04;3.80;99.90
25046;DHT22;13044;49.304;12.840;2023-02-01T09:38:31;3.80;99.90
25046;DHT22;13044;49.304;12.840;2023-02-01T09:41:21;3.80;99.90
25046;DHT22;13044;49.304;12.840;2023-02-01T09:47:16;3.90;99.90
25046;DHT22;13044;49.304;12.840;2023-02-01T09:50:08;4.10;99.90
25046;DHT22;13044;49.304;12.840;2023-02-01T09:52:45;4.20;99.90
25046;DHT22;13044;49.304;12.840;2023-02-01T09:58:41;4.20;99.90
25046;DHT22;13044;49.304;12.840;2023-02-01T10:01:22;4.20;99.90
25046;DHT22;13044;49.304;12.840;2023-02-01T10:04:03;4.10;99.90
25046;DHT22;13044;49.304;12.840;2023-02-01T10:16:37;4.30;99.90
25046;DHT22;13044;49.304;12.840;2023-02-01T10:19:31;4.20;99.90
25046;DHT22;13044;49.304;12.840;2023-02-01T10:22:10;4.20;99.90
25046;DHT22;13044;49.304;12.840;2023-02-01T10:25:17;4.10;99.90
25046;DHT22;13044;49.304;12.840;2023-02-01T10:27:49;4.10;99.90
25046;DHT22;13044;49.304;12.840;2023-02-01T10:30:31;4.10;99.90
25046;DHT22;13044;49.304;12.840;2023-02-01T10:33:18;4.10;99.90
25046;DHT22;13044;49.304;12.840;2023-02-01T10:35:53;4.10;99.90
25046;DHT22;13044;49.304;12.840;2023-02-01T10:38:29;4.20;99.90
25046;DHT22;13044;49.304;12.840;2023-02-01T10:41:04;4.40;99.90
25046;DHT22;13044;49.304;12.840;2023-02-01T10:43:42;4.50;99.90
25046;DHT22;13044;49.304;12.840;2023-02-01T10:46:10;4.60;99.90
25046;DHT22;13044;49.304;12.840;2023-02-01T10:48:37;4.70;99.90
25046;DHT22;13044;49.304;12.840;2023-02-01T10:51:14;4.90;99.90
25046;DHT22;13044;49.304;12.840;2023-02-01T10:53:58;5.00;99.90
25046;DHT22;13044;49.304;12.840;2023-02-01T10:56:37;5.00;99.90
25046;DHT22;13044;49.304;12.840;2023-02-01T10:59:13;5.20;99.90
25046;DHT22;13044;49.304;12.840;2023-02-01T11:01:49;5.30;99.90
25046;DHT22;13044;49.304;12.840;2023-02-01T11:04:19;5.50;99.90
25046;DHT22;13044;49.304;12.840;2023-02-01T11:06:52;5.80;99.90
25046;DHT22;13044;49.304;12.840;2023-02-01T11:09:24;6.00;99.90
25046;DHT22;13044;49.304;12.840;2023-02-01T11:16:55;5.70;99.90
25046;DHT22;13044;49.304;12.840;2023-02-01T11:19:24;5.80;99.90
25046;DHT22;13044;49.304;12.840;2023-02-01T11:21:53;6.10;99.90
25046;DHT22;13044;49.304;12.840;2023-02-01T11:24:31;6.10;99.90
25046;DHT22;13044;49.304;12.840;2023-02-01T11:27:03;6.20;99.90
25046;DHT22;13044;49.304;12.840;2023-02-01T11:29:46;6.40;99.90
25046;DHT22;13044;49.304;12.840;2023-02-01T11:32:20;6.40;99.90
25046;DHT22;13044;49.304;12.840;2023-02-01T11:34:53;6.50;99.90
25046;DHT22;13044;49.304;12.840;2023-02-01T11:37:41;6.40;99.90
25046;DHT22;13044;49.304;12.840;2023-02-01T11:46:00;6.70;99.90
25046;DHT22;13044;49.304;12.840;2023-02-01T11:48:32;6.70;99.90
25046;DHT22;13044;49.304;12.840;2023-02-01T11:59:49;6.20;99.90
25046;DHT22;13044;49.304;12.840;2023-02-01T12:05:50;6.40;99.90
25046;DHT22;13044;49.304;12.840;2023-02-01T12:08:37;6.50;99.90
25046;DHT22;13044;49.304;12.840;2023-02-01T12:15:15;6.60;99.90
25046;DHT22;13044;49.304;12.840;2023-02-01T12:21:05;6.20;99.90
25046;DHT22;13044;49.304;12.840;2023-02-01T12:33:14;5.90;99.90
25046;DHT22;13044;49.304;12.840;2023-02-01T12:38:46;5.70;99.90
25046;DHT22;13044;49.304;12.840;2023-02-01T12:41:50;5.70;99.90
25046;DHT22;13044;49.304;12.840;2023-02-01T12:44:54;5.50;99.90
25046;DHT22;13044;49.304;12.840;2023-02-01T12:47:31;5.40;99.90
25046;DHT22;13044;49.304;12.840;2023-02-01T12:50:20;5.50;99.90
25046;DHT22;13044;49.304;12.840;2023-02-01T12:52:54;5.30;99.90
25046;DHT22;13044;49.304;12.840;2023-02-01T12:58:06;5.50;99.90
25046;DHT22;13044;49.304;12.840;2023-02-01T13:00:43;5.60;99.90
25046;DHT22;13044;49.304;12.840;2023-02-01T13:06:12;5.40;99.90
25046;DHT22;13044;49.304;12.840;2023-02-01T13:12:00;5.40;99.90
25046;DHT22;13044;49.304;12.840;2023-02-01T13:14:48;5.30;99.90
25046;DHT22;13044;49.304;12.840;2023-02-01T13:17:25;5.10;99.90
25046;DHT22;13044;49.304;12.840;2023-02-01T13:20:28;5.10;99.90
25046;DHT22;13044;49.304;12.840;2023-02-01T13:23:35;5.10;99.90
25046;DHT22;13044;49.304;12.840;2023-02-01T13:26:04;5.00;99.90
25046;DHT22;13044;49.304;12.840;2023-02-01T13:28:50;5.10;99.90
25046;DHT22;13044;49.304;12.840;2023-02-01T13:37:20;5.30;99.90
25046;DHT22;13044;49.304;12.840;2023-02-01T13:43:02;5.20;99.90
25046;DHT22;13044;49.304;12.840;2023-02-01T13:45:37;5.30;99.90
25046;DHT22;13044;49.304;12.840;2023-02-01T13:48:25;5.20;99.90
25046;DHT22;13044;49.304;12.840;2023-02-01T13:51:00;5.20;99.90
25046;DHT22;13044;49.304;12.840;2023-02-01T13:53:33;5.20;99.90
25046;DHT22;13044;49.304;12.840;2023-02-01T13:56:11;5.10;99.90
25046;DHT22;13044;49.304;12.840;2023-02-01T13:58:45;5.20;99.90
25046;DHT22;13044;49.304;12.840;2023-02-01T14:11:53;5.40;99.90
25046;DHT22;13044;49.304;12.840;2023-02-01T14:19:21;5.30;99.90
25046;DHT22;13044;49.304;12.840;2023-02-01T14:21:58;5.10;99.90
25046;DHT22;13044;49.304;12.840;2023-02-01T14:24:32;5.10;99.90
25046;DHT22;13044;49.304;12.840;2023-02-01T14:27:06;5.00;99.90
25046;DHT22;13044;49.304;12.840;2023-02-01T14:29:50;4.90;99.90
25046;DHT22;13044;49.304;12.840;2023-02-01T14:32:26;4.80;99.90
25046;DHT22;13044;49.304;12.840;2023-02-01T14:35:00;4.90;99.90
25046;DHT22;13044;49.304;12.840;2023-02-01T14:37:33;4.70;99.90
25046;DHT22;13044;49.304;12.840;2023-02-01T14:42:53;4.70;99.90
25046;DHT22;13044;49.304;12.840;2023-02-01T15:06:40;4.10;99.90
25046;DHT22;13044;49.304;12.840;2023-02-01T15:09:29;4.20;99.90
25046;DHT22;13044;49.304;12.840;2023-02-01T15:14:41;4.30;99.90
25046;DHT22;13044;49.304;12.840;2023-02-01T15:17:30;4.30;99.90
25046;DHT22;13044;49.304;12.840;2023-02-01T15:20:16;4.50;99.90
25046;DHT22;13044;49.304;12.840;2023-02-01T15:22:54;4.50;99.90
25046;DHT22;13044;49.304;12.840;2023-02-01T15:25:38;4.40;99.90
25046;DHT22;13044;49.304;12.840;2023-02-01T15:28:09;4.40;99.90
25046;DHT22;13044;49.304;12.840;2023-02-01T15:30:39;4.40;99.90
25046;DHT22;13044;49.304;12.840;2023-02-01T15:35:42;4.40;99.90
25046;DHT22;13044;49.304;12.840;2023-02-01T15:43:29;4.30;99.90
25046;DHT22;13044;49.304;12.840;2023-02-01T15:46:02;4.20;99.90
25046;DHT22;13044;49.304;12.840;2023-02-01T15:48:40;4.10;99.90
25046;DHT22;13044;49.304;12.840;2023-02-01T15:51:15;4.20;99.90
25046;DHT22;13044;49.304;12.840;2023-02-01T15:53:49;4.20;99.90
25046;DHT22;13044;49.304;12.840;2023-02-01T15:56:24;4.40;99.90
25046;DHT22;13044;49.304;12.840;2023-02-01T15:58:56;4.30;99.90
25046;DHT22;13044;49.304;12.840;2023-02-01T16:01:26;4.30;99.90
25046;DHT22;13044;49.304;12.840;2023-02-01T16:07:03;4.30;99.90
25046;DHT22;13044;49.304;12.840;2023-02-01T16:09:59;4.30;99.90
25046;DHT22;13044;49.304;12.840;2023-02-01T16:12:45;4.20;99.90
25046;DHT22;13044;49.304;12.840;2023-02-01T16:15:14;4.30;99.90
25046;DHT22;13044;49.304;12.840;2023-02-01T16:17:41;4.20;99.90
25046;DHT22;13044;49.304;12.840;2023-02-01T16:20:09;4.20;99.90
25046;DHT22;13044;49.304;12.840;2023-02-01T16:22:36;4.10;99.90
25046;DHT22;13044;49.304;12.840;2023-02-01T16:25:03;4.10;99.90
25046;DHT22;13044;49.304;12.840;2023-02-01T16:27:30;4.10;99.90
25046;DHT22;13044;49.304;12.840;2023-02-01T16:29:57;4.10;99.90
25046;DHT22;13044;49.304;12.840;2023-02-01T16:32:24;4.10;99.90
25046;DHT22;13044;49.304;12.840;2023-02-01T16:34:53;4.10;99.90
25046;DHT22;13044;49.304;12.840;2023-02-01T16:37:22;4.10;99.90
25046;DHT22;13044;49.304;12.840;2023-02-01T16:39:50;4.10;99.90
25046;DHT22;13044;49.304;12.840;2023-02-01T16:42:17;4.10;99.90
25046;DHT22;13044;49.304;12.840;2023-02-01T16:44:44;4.10;99.90
25046;DHT22;13044;49.304;12.840;2023-02-01T16:47:16;4.20;99.90
25046;DHT22;13044;49.304;12.840;2023-02-01T16:49:48;4.20;99.90
25046;DHT22;13044;49.304;12.840;2023-02-01T16:52:21;4.20;99.90
25046;DHT22;13044;49.304;12.840;2023-02-01T16:54:50;4.20;99.90
25046;DHT22;13044;49.304;12.840;2023-02-01T16:57:19;4.20;99.90
25046;DHT22;13044;49.304;12.840;2023-02-01T16:59:49;4.30;99.90
25046;DHT22;13044;49.304;12.840;2023-02-01T17:02:17;4.40;99.90
25046;DHT22;13044;49.304;12.840;2023-02-01T17:04:48;4.40;99.90
25046;DHT22;13044;49.304;12.840;2023-02-01T17:07:17;4.30;99.90
25046;DHT22;13044;49.304;12.840;2023-02-01T17:09:46;4.30;99.90
25046;DHT22;13044;49.304;12.840;2023-02-01T17:12:26;4.30;99.90
25046;DHT22;13044;49.304;12.840;2023-02-01T17:14:57;4.20;99.90
25046;DHT22;13044;49.304;12.840;2023-02-01T17:17:35;4.20;99.90
25046;DHT22;13044;49.304;12.840;2023-02-01T17:20:06;4.20;99.90
25046;DHT22;13044;49.304;12.840;2023-02-01T17:22:33;4.30;99.90
25046;DHT22;13044;49.304;12.840;2023-02-01T17:25:00;4.30;99.90
25046;DHT22;13044;49.304;12.840;2023-02-01T17:27:27;4.30;99.90
25046;DHT22;13044;49.304;12.840;2023-02-01T17:29:55;4.30;99.90
25046;DHT22;13044;49.304;12.840;2023-02-01T17:32:24;4.30;99.90
25046;DHT22;13044;49.304;12.840;2023-02-01T17:34:51;4.30;99.90
25046;DHT22;13044;49.304;12.840;2023-02-01T17:37:28;4.30;99.90
25046;DHT22;13044;49.304;12.840;2023-02-01T17:39:56;4.30;99.90
25046;DHT22;13044;49.304;12.840;2023-02-01T17:42:24;4.40;99.90
25046;DHT22;13044;49.304;12.840;2023-02-01T17:44:57;4.40;99.90
25046;DHT22;13044;49.304;12.840;2023-02-01T17:47:26;4.30;99.90
25046;DHT22;13044;49.304;12.840;2023-02-01T17:49:52;4.40;99.90
25046;DHT22;13044;49.304;12.840;2023-02-01T17:52:23;4.40;99.90
25046;DHT22;13044;49.304;12.840;2023-02-01T17:54:51;4.40;99.90
25046;DHT22;13044;49.304;12.840;2023-02-01T17:57:19;4.30;99.90
25046;DHT22;13044;49.304;12.840;2023-02-01T17:59:47;4.30;99.90
25046;DHT22;13044;49.304;12.840;2023-02-01T18:02:24;4.30;99.90
25046;DHT22;13044;49.304;12.840;2023-02-01T18:04:51;4.20;99.90
25046;DHT22;13044;49.304;12.840;2023-02-01T18:07:18;4.30;99.90
25046;DHT22;13044;49.304;12.840;2023-02-01T18:09:44;4.10;99.90
25046;DHT22;13044;49.304;12.840;2023-02-01T18:12:20;4.10;99.90
25046;DHT22;13044;49.304;12.840;2023-02-01T18:14:48;3.90;99.90
25046;DHT22;13044;49.304;12.840;2023-02-01T18:17:15;3.90;99.90
25046;DHT22;13044;49.304;12.840;2023-02-01T18:19:42;3.90;99.90
25046;DHT22;13044;49.304;12.840;2023-02-01T18:22:17;3.80;99.90
25046;DHT22;13044;49.304;12.840;2023-02-01T18:24:45;3.70;99.90
25046;DHT22;13044;49.304;12.840;2023-02-01T18:27:12;3.70;99.90
25046;DHT22;13044;49.304;12.840;2023-02-01T18:29:39;3.70;99.90
25046;DHT22;13044;49.304;12.840;2023-02-01T18:32:05;3.70;99.90
25046;DHT22;13044;49.304;12.840;2023-02-01T18:34:33;3.70;99.90
25046;DHT22;13044;49.304;12.840;2023-02-01T18:37:00;3.70;99.90